sensor_id;sensor_type;location;lat;lon;timestamp;temperature;humidity
37974;DHT22;23796;51.458;7.000;2024-01-30T00:00:02;10.30;94.80
37974;DHT22;23796;51.458;7.000;2024-01-30T00:02:33;10.30;94.80
37974;DHT22;23796;51.458;7.000;2024-01-30T00:04:59;10.20;94.80
37974;DHT22;23796;51.458;7.000;2024-01-30T00:07:24;10.20;94.80
37974;DHT22;23796;51.458;7.000;2024-01-30T00:09:52;10.20;94.90
37974;DHT22;23796;51.458;7.000;2024-01-30T00:12:18;10.10;94.90
37974;DHT22;23796;51.458;7.000;2024-01-30T00:14:44;10.10;95.00
37974;DHT22;23796;51.458;7.000;2024-01-30T00:17:10;10.10;95.00
37974;DHT22;23796;51.458;7.000;2024-01-30T00:19:35;10.10;95.00
37974;DHT22;23796;51.458;7.000;2024-01-30T00:22:01;10.10;94.90
37974;DHT22;23796;51.458;7.000;2024-01-30T00:24:26;10.10;94.90
37974;DHT22;23796;51.458;7.000;2024-01-30T00:26:52;10.10;94.90
37974;DHT22;23796;51.458;7.000;2024-01-30T00:29:17;10.20;94.70
37974;DHT22;23796;51.458;7.000;2024-01-30T00:31:47;10.20;94.60
37974;DHT22;23796;51.458;7.000;2024-01-30T00:34:13;10.20;94.60
37974;DHT22;23796;51.458;7.000;2024-01-30T00:36:38;10.20;94.50
37974;DHT22;23796;51.458;7.000;2024-01-30T00:39:07;10.20;94.50
37974;DHT22;23796;51.458;7.000;2024-01-30T00:41:34;10.30;94.40
37974;DHT22;23796;51.458;7.000;2024-01-30T00:44:00;10.30;94.30
37974;DHT22;23796;51.458;7.000;2024-01-30T00:46:25;10.30;94.20
37974;DHT22;23796;51.458;7.000;2024-01-30T00:48:51;10.30;94.10
37974;DHT22;23796;51.458;7.000;2024-01-30T00:51:16;10.30;94.10
37974;DHT22;23796;51.458;7.000;2024-01-30T00:53:42;10.30;94.00
37974;DHT22;23796;51.458;7.000;2024-01-30T00:56:10;10.30;93.90
37974;DHT22;23796;51.458;7.000;2024-01-30T00:58:35;10.30;93.80
37974;DHT22;23796;51.458;7.000;2024-01-30T01:01:01;10.40;93.80
37974;DHT22;23796;51.458;7.000;2024-01-30T01:03:27;10.40;93.70
37974;DHT22;23796;51.458;7.000;2024-01-30T01:05:57;10.30;93.70
37974;DHT22;23796;51.458;7.000;2024-01-30T01:08:25;10.30;93.80
37974;DHT22;23796;51.458;7.000;2024-01-30T01:10:52;10.30;93.90
37974;DHT22;23796;51.458;7.000;2024-01-30T01:13:17;10.30;93.90
37974;DHT22;23796;51.458;7.000;2024-01-30T01:15:43;10.30;93.90
37974;DHT22;23796;51.458;7.000;2024-01-30T01:18:08;10.30;93.90
37974;DHT22;23796;51.458;7.000;2024-01-30T01:20:34;10.30;93.80
37974;DHT22;23796;51.458;7.000;2024-01-30T01:23:00;10.30;93.80
37974;DHT22;23796;51.458;7.000;2024-01-30T01:25:25;10.30;93.80
37974;DHT22;23796;51.458;7.000;2024-01-30T01:27:51;10.30;93.80
37974;DHT22;23796;51.458;7.000;2024-01-30T01:30:18;10.30;93.80
37974;DHT22;23796;51.458;7.000;2024-01-30T01:32:54;10.30;93.80
37974;DHT22;23796;51.458;7.000;2024-01-30T01:35:26;10.30;93.80
37974;DHT22;23796;51.458;7.000;2024-01-30T01:37:53;10.30;93.80
37974;DHT22;23796;51.458;7.000;2024-01-30T01:40:25;10.30;93.80
37974;DHT22;23796;51.458;7.000;2024-01-30T01:42:52;10.30;93.80
37974;DHT22;23796;51.458;7.000;2024-01-30T01:45:18;10.30;93.80
37974;DHT22;23796;51.458;7.000;2024-01-30T01:47:49;10.30;93.80
37974;DHT22;23796;51.458;7.000;2024-01-30T01:50:16;10.30;93.80
37974;DHT22;23796;51.458;7.000;2024-01-30T01:52:47;10.30;93.80
37974;DHT22;23796;51.458;7.000;2024-01-30T01:55:13;10.30;93.80
37974;DHT22;23796;51.458;7.000;2024-01-30T01:57:40;10.30;93.80
37974;DHT22;23796;51.458;7.000;2024-01-30T02:00:10;10.30;93.80
37974;DHT22;23796;51.458;7.000;2024-01-30T02:02:39;10.30;93.80
37974;DHT22;23796;51.458;7.000;2024-01-30T02:05:04;10.30;93.80
37974;DHT22;23796;51.458;7.000;2024-01-30T02:07:30;10.30;93.90
37974;DHT22;23796;51.458;7.000;2024-01-30T02:09:56;10.30;94.00
37974;DHT22;23796;51.458;7.000;2024-01-30T02:12:22;10.30;94.00
37974;DHT22;23796;51.458;7.000;2024-01-30T02:14:52;10.20;94.10
37974;DHT22;23796;51.458;7.000;2024-01-30T02:17:20;10.20;94.10
37974;DHT22;23796;51.458;7.000;2024-01-30T02:19:48;10.20;94.20
37974;DHT22;23796;51.458;7.000;2024-01-30T02:22:14;10.20;94.20
37974;DHT22;23796;51.458;7.000;2024-01-30T02:24:40;10.10;94.30
37974;DHT22;23796;51.458;7.000;2024-01-30T02:27:05;10.10;94.30
37974;DHT22;23796;51.458;7.000;2024-01-30T02:29:33;10.10;94.40
37974;DHT22;23796;51.458;7.000;2024-01-30T02:31:59;10.10;94.40
37974;DHT22;23796;51.458;7.000;2024-01-30T02:34:24;10.10;94.40
37974;DHT22;23796;51.458;7.000;2024-01-30T02:36:50;10.10;94.50
37974;DHT22;23796;51.458;7.000;2024-01-30T02:39:16;10.10;94.50
37974;DHT22;23796;51.458;7.000;2024-01-30T02:41:45;10.10;94.50
37974;DHT22;23796;51.458;7.000;2024-01-30T02:44:13;10.10;94.50
37974;DHT22;23796;51.458;7.000;2024-01-30T02:46:39;10.10;94.60
37974;DHT22;23796;51.458;7.000;2024-01-30T02:49:05;10.10;94.50
37974;DHT22;23796;51.458;7.000;2024-01-30T02:51:30;10.10;94.50
37974;DHT22;23796;51.458;7.000;2024-01-30T02:53:58;10.10;94.60
37974;DHT22;23796;51.458;7.000;2024-01-30T02:56:24;10.10;94.60
37974;DHT22;23796;51.458;7.000;2024-01-30T02:58:49;10.10;94.60
37974;DHT22;23796;51.458;7.000;2024-01-30T03:01:15;10.10;94.50
37974;DHT22;23796;51.458;7.000;2024-01-30T03:03:40;10.10;94.50
37974;DHT22;23796;51.458;7.000;2024-01-30T03:06:06;10.10;94.60
37974;DHT22;23796;51.458;7.000;2024-01-30T03:08:35;10.10;94.60
37974;DHT22;23796;51.458;7.000;2024-01-30T03:11:00;10.10;94.60
37974;DHT22;23796;51.458;7.000;2024-01-30T03:13:26;10.10;94.60
37974;DHT22;23796;51.458;7.000;2024-01-30T03:15:54;10.10;94.50
37974;DHT22;23796;51.458;7.000;2024-01-30T03:18:21;10.10;94.50
37974;DHT22;23796;51.458;7.000;2024-01-30T03:20:49;10.10;94.50
37974;DHT22;23796;51.458;7.000;2024-01-30T03:23:14;10.10;94.50
37974;DHT22;23796;51.458;7.000;2024-01-30T03:25:40;10.10;94.50
37974;DHT22;23796;51.458;7.000;2024-01-30T03:28:06;10.10;94.60
37974;DHT22;23796;51.458;7.000;2024-01-30T03:30:31;10.10;94.60
37974;DHT22;23796;51.458;7.000;2024-01-30T03:32:59;10.10;94.60
37974;DHT22;23796;51.458;7.000;2024-01-30T03:35:25;10.10;94.70
37974;DHT22;23796;51.458;7.000;2024-01-30T03:37:53;10.10;94.60
37974;DHT22;23796;51.458;7.000;2024-01-30T03:40:18;10.10;94.60
37974;DHT22;23796;51.458;7.000;2024-01-30T03:42:44;10.10;94.60
37974;DHT22;23796;51.458;7.000;2024-01-30T03:45:09;10.10;94.60
37974;DHT22;23796;51.458;7.000;2024-01-30T03:47:35;10.10;94.60
37974;DHT22;23796;51.458;7.000;2024-01-30T03:50:00;10.10;94.60
37974;DHT22;23796;51.458;7.000;2024-01-30T03:52:26;10.10;94.70
37974;DHT22;23796;51.458;7.000;2024-01-30T03:54:52;10.10;94.70
37974;DHT22;23796;51.458;7.000;2024-01-30T03:57:17;10.10;94.70
37974;DHT22;23796;51.458;7.000;2024-01-30T03:59:43;10.10;94.70
37974;DHT22;23796;51.458;7.000;2024-01-30T04:02:10;10.10;94.70
37974;DHT22;23796;51.458;7.000;2024-01-30T04:04:36;10.10;94.70
37974;DHT22;23796;51.458;7.000;2024-01-30T04:07:02;10.00;94.80
37974;DHT22;23796;51.458;7.000;2024-01-30T04:09:28;10.00;94.90
37974;DHT22;23796;51.458;7.000;2024-01-30T04:11:54;10.00;94.80
37974;DHT22;23796;51.458;7.000;2024-01-30T04:14:19;10.00;94.80
37974;DHT22;23796;51.458;7.000;2024-01-30T04:16:45;10.00;94.80
37974;DHT22;23796;51.458;7.000;2024-01-30T04:19:10;10.00;94.90
37974;DHT22;23796;51.458;7.000;2024-01-30T04:21:36;10.00;94.90
37974;DHT22;23796;51.458;7.000;2024-01-30T04:24:02;10.00;94.90
37974;DHT22;23796;51.458;7.000;2024-01-30T04:26:30;10.00;94.90
37974;DHT22;23796;51.458;7.000;2024-01-30T04:28:55;10.00;94.90
37974;DHT22;23796;51.458;7.000;2024-01-30T04:31:23;10.00;94.90
37974;DHT22;23796;51.458;7.000;2024-01-30T04:33:48;10.00;95.00
37974;DHT22;23796;51.458;7.000;2024-01-30T04:36:16;10.00;95.00
37974;DHT22;23796;51.458;7.000;2024-01-30T04:38:42;10.00;95.00
37974;DHT22;23796;51.458;7.000;2024-01-30T04:41:10;10.00;95.10
37974;DHT22;23796;51.458;7.000;2024-01-30T04:43:35;10.00;95.00
37974;DHT22;23796;51.458;7.000;2024-01-30T04:46:01;10.00;95.00
37974;DHT22;23796;51.458;7.000;2024-01-30T04:48:27;10.00;94.90
37974;DHT22;23796;51.458;7.000;2024-01-30T04:50:58;10.00;94.90
37974;DHT22;23796;51.458;7.000;2024-01-30T04:53:23;10.00;94.90
37974;DHT22;23796;51.458;7.000;2024-01-30T04:55:49;10.00;94.90
37974;DHT22;23796;51.458;7.000;2024-01-30T04:58:15;10.00;95.00
37974;DHT22;23796;51.458;7.000;2024-01-30T05:00:42;10.00;95.00
37974;DHT22;23796;51.458;7.000;2024-01-30T05:03:10;10.00;95.00
37974;DHT22;23796;51.458;7.000;2024-01-30T05:05:36;10.00;95.00
37974;DHT22;23796;51.458;7.000;2024-01-30T05:08:02;10.00;95.00
37974;DHT22;23796;51.458;7.000;2024-01-30T05:10:29;10.00;95.00
37974;DHT22;23796;51.458;7.000;2024-01-30T05:12:55;10.00;94.90
37974;DHT22;23796;51.458;7.000;2024-01-30T05:15:21;10.00;94.90
37974;DHT22;23796;51.458;7.000;2024-01-30T05:17:46;10.00;94.90
37974;DHT22;23796;51.458;7.000;2024-01-30T05:20:12;10.00;94.90
37974;DHT22;23796;51.458;7.000;2024-01-30T05:22:40;10.00;94.80
37974;DHT22;23796;51.458;7.000;2024-01-30T05:25:10;10.00;94.90
37974;DHT22;23796;51.458;7.000;2024-01-30T05:27:36;9.90;94.90
37974;DHT22;23796;51.458;7.000;2024-01-30T05:30:02;9.90;95.10
37974;DHT22;23796;51.458;7.000;2024-01-30T05:32:28;9.90;95.20
37974;DHT22;23796;51.458;7.000;2024-01-30T05:34:53;9.80;95.30
37974;DHT22;23796;51.458;7.000;2024-01-30T05:37:19;9.80;95.40
37974;DHT22;23796;51.458;7.000;2024-01-30T05:39:44;9.80;95.50
37974;DHT22;23796;51.458;7.000;2024-01-30T05:42:10;9.80;95.60
37974;DHT22;23796;51.458;7.000;2024-01-30T05:44:38;9.80;95.70
37974;DHT22;23796;51.458;7.000;2024-01-30T05:47:04;9.70;95.80
37974;DHT22;23796;51.458;7.000;2024-01-30T05:49:29;9.80;95.80
37974;DHT22;23796;51.458;7.000;2024-01-30T05:51:55;9.80;95.90
37974;DHT22;23796;51.458;7.000;2024-01-30T05:54:21;9.70;95.90
37974;DHT22;23796;51.458;7.000;2024-01-30T05:56:46;9.70;95.90
37974;DHT22;23796;51.458;7.000;2024-01-30T05:59:14;9.70;96.00
37974;DHT22;23796;51.458;7.000;2024-01-30T06:01:49;9.70;96.00
37974;DHT22;23796;51.458;7.000;2024-01-30T06:04:14;9.70;96.00
37974;DHT22;23796;51.458;7.000;2024-01-30T06:06:42;9.70;96.10
37974;DHT22;23796;51.458;7.000;2024-01-30T06:09:08;9.70;96.10
37974;DHT22;23796;51.458;7.000;2024-01-30T06:11:34;9.70;96.10
37974;DHT22;23796;51.458;7.000;2024-01-30T06:14:02;9.80;96.00
37974;DHT22;23796;51.458;7.000;2024-01-30T06:16:28;9.80;96.00
37974;DHT22;23796;51.458;7.000;2024-01-30T06:18:55;9.80;95.90
37974;DHT22;23796;51.458;7.000;2024-01-30T06:21:21;9.90;96.00
37974;DHT22;23796;51.458;7.000;2024-01-30T06:23:47;9.90;95.90
37974;DHT22;23796;51.458;7.000;2024-01-30T06:26:12;9.90;95.80
37974;DHT22;23796;51.458;7.000;2024-01-30T06:28:38;10.00;95.70
37974;DHT22;23796;51.458;7.000;2024-01-30T06:31:06;10.00;95.60
37974;DHT22;23796;51.458;7.000;2024-01-30T06:33:32;10.10;95.50
37974;DHT22;23796;51.458;7.000;2024-01-30T06:35:58;10.10;95.30
37974;DHT22;23796;51.458;7.000;2024-01-30T06:38:25;10.20;95.20
37974;DHT22;23796;51.458;7.000;2024-01-30T06:40:51;10.20;95.00
37974;DHT22;23796;51.458;7.000;2024-01-30T06:43:19;10.20;94.90
37974;DHT22;23796;51.458;7.000;2024-01-30T06:45:44;10.30;94.80
37974;DHT22;23796;51.458;7.000;2024-01-30T06:48:12;10.20;94.80
37974;DHT22;23796;51.458;7.000;2024-01-30T06:50:38;10.30;94.70
37974;DHT22;23796;51.458;7.000;2024-01-30T06:53:03;10.30;94.70
37974;DHT22;23796;51.458;7.000;2024-01-30T06:55:29;10.30;94.70
37974;DHT22;23796;51.458;7.000;2024-01-30T06:57:54;10.30;94.70
37974;DHT22;23796;51.458;7.000;2024-01-30T07:00:20;10.30;94.60
37974;DHT22;23796;51.458;7.000;2024-01-30T07:02:48;10.40;94.60
37974;DHT22;23796;51.458;7.000;2024-01-30T07:05:14;10.40;94.50
37974;DHT22;23796;51.458;7.000;2024-01-30T07:07:40;10.40;94.50
37974;DHT22;23796;51.458;7.000;2024-01-30T07:10:06;10.50;94.50
37974;DHT22;23796;51.458;7.000;2024-01-30T07:12:34;10.50;94.40
37974;DHT22;23796;51.458;7.000;2024-01-30T07:15:02;10.50;94.40
37974;DHT22;23796;51.458;7.000;2024-01-30T07:17:33;10.50;94.40
37974;DHT22;23796;51.458;7.000;2024-01-30T07:19:59;10.50;94.40
37974;DHT22;23796;51.458;7.000;2024-01-30T07:22:25;10.60;94.30
37974;DHT22;23796;51.458;7.000;2024-01-30T07:24:50;10.60;94.20
37974;DHT22;23796;51.458;7.000;2024-01-30T07:27:17;10.60;94.20
37974;DHT22;23796;51.458;7.000;2024-01-30T07:29:43;10.60;94.20
37974;DHT22;23796;51.458;7.000;2024-01-30T07:32:09;10.60;94.30
37974;DHT22;23796;51.458;7.000;2024-01-30T07:34:34;10.60;94.20
37974;DHT22;23796;51.458;7.000;2024-01-30T07:37:01;10.60;94.30
37974;DHT22;23796;51.458;7.000;2024-01-30T07:39:27;10.60;94.30
37974;DHT22;23796;51.458;7.000;2024-01-30T07:41:53;10.60;94.20
37974;DHT22;23796;51.458;7.000;2024-01-30T07:44:19;10.70;94.20
37974;DHT22;23796;51.458;7.000;2024-01-30T07:46:46;10.70;94.10
37974;DHT22;23796;51.458;7.000;2024-01-30T07:49:12;10.70;94.00
37974;DHT22;23796;51.458;7.000;2024-01-30T07:51:39;10.80;94.00
37974;DHT22;23796;51.458;7.000;2024-01-30T07:54:05;10.80;93.90
37974;DHT22;23796;51.458;7.000;2024-01-30T07:56:31;10.80;93.70
37974;DHT22;23796;51.458;7.000;2024-01-30T07:58:57;10.80;93.60
37974;DHT22;23796;51.458;7.000;2024-01-30T08:01:22;10.80;93.60
37974;DHT22;23796;51.458;7.000;2024-01-30T08:03:48;10.80;93.60
37974;DHT22;23796;51.458;7.000;2024-01-30T08:06:15;10.90;93.40
37974;DHT22;23796;51.458;7.000;2024-01-30T08:08:41;10.90;93.40
37974;DHT22;23796;51.458;7.000;2024-01-30T08:11:07;10.90;93.40
37974;DHT22;23796;51.458;7.000;2024-01-30T08:13:33;10.90;93.30
37974;DHT22;23796;51.458;7.000;2024-01-30T08:15:58;10.90;93.50
37974;DHT22;23796;51.458;7.000;2024-01-30T08:18:24;10.90;94.00
37974;DHT22;23796;51.458;7.000;2024-01-30T08:20:49;11.00;93.90
37974;DHT22;23796;51.458;7.000;2024-01-30T08:23:15;11.00;93.40
37974;DHT22;23796;51.458;7.000;2024-01-30T08:25:41;11.00;93.40
37974;DHT22;23796;51.458;7.000;2024-01-30T08:28:08;11.00;93.40
37974;DHT22;23796;51.458;7.000;2024-01-30T08:30:34;11.00;93.30
37974;DHT22;23796;51.458;7.000;2024-01-30T08:32:59;11.00;93.30
37974;DHT22;23796;51.458;7.000;2024-01-30T08:35:25;11.10;93.30
37974;DHT22;23796;51.458;7.000;2024-01-30T08:37:51;11.10;93.30
37974;DHT22;23796;51.458;7.000;2024-01-30T08:40:19;11.10;93.30
37974;DHT22;23796;51.458;7.000;2024-01-30T08:42:45;11.10;93.10
37974;DHT22;23796;51.458;7.000;2024-01-30T08:45:11;11.20;93.10
37974;DHT22;23796;51.458;7.000;2024-01-30T08:47:39;11.20;93.00
37974;DHT22;23796;51.458;7.000;2024-01-30T08:50:08;11.30;92.90
37974;DHT22;23796;51.458;7.000;2024-01-30T08:52:33;11.30;92.80
37974;DHT22;23796;51.458;7.000;2024-01-30T08:55:00;11.30;92.80
37974;DHT22;23796;51.458;7.000;2024-01-30T08:57:25;11.30;92.80
37974;DHT22;23796;51.458;7.000;2024-01-30T08:59:54;11.30;92.70
37974;DHT22;23796;51.458;7.000;2024-01-30T09:02:19;11.40;92.60
37974;DHT22;23796;51.458;7.000;2024-01-30T09:04:45;11.40;92.60
37974;DHT22;23796;51.458;7.000;2024-01-30T09:07:11;11.40;92.50
37974;DHT22;23796;51.458;7.000;2024-01-30T09:09:39;11.40;92.40
37974;DHT22;23796;51.458;7.000;2024-01-30T09:12:07;11.40;92.50
37974;DHT22;23796;51.458;7.000;2024-01-30T09:14:39;11.40;92.40
37974;DHT22;23796;51.458;7.000;2024-01-30T09:17:08;11.50;92.30
37974;DHT22;23796;51.458;7.000;2024-01-30T09:19:33;11.50;92.20
37974;DHT22;23796;51.458;7.000;2024-01-30T09:21:59;11.50;92.20
37974;DHT22;23796;51.458;7.000;2024-01-30T09:24:26;11.60;92.10
37974;DHT22;23796;51.458;7.000;2024-01-30T09:26:52;11.60;92.00
37974;DHT22;23796;51.458;7.000;2024-01-30T09:29:17;11.60;92.10
37974;DHT22;23796;51.458;7.000;2024-01-30T09:31:44;11.70;92.00
37974;DHT22;23796;51.458;7.000;2024-01-30T09:34:10;11.70;91.70
37974;DHT22;23796;51.458;7.000;2024-01-30T09:36:36;11.80;91.50
37974;DHT22;23796;51.458;7.000;2024-01-30T09:39:01;11.80;91.30
37974;DHT22;23796;51.458;7.000;2024-01-30T09:41:36;11.90;91.20
37974;DHT22;23796;51.458;7.000;2024-01-30T09:44:08;11.90;91.20
37974;DHT22;23796;51.458;7.000;2024-01-30T09:46:34;11.90;91.10
37974;DHT22;23796;51.458;7.000;2024-01-30T09:49:01;11.90;91.00
37974;DHT22;23796;51.458;7.000;2024-01-30T09:51:27;12.00;90.80
37974;DHT22;23796;51.458;7.000;2024-01-30T09:53:54;12.00;90.80
37974;DHT22;23796;51.458;7.000;2024-01-30T09:56:22;12.10;90.50
37974;DHT22;23796;51.458;7.000;2024-01-30T09:58:47;12.20;90.30
37974;DHT22;23796;51.458;7.000;2024-01-30T10:01:17;12.20;90.20
37974;DHT22;23796;51.458;7.000;2024-01-30T10:03:44;12.20;90.10
37974;DHT22;23796;51.458;7.000;2024-01-30T10:06:14;12.30;90.00
37974;DHT22;23796;51.458;7.000;2024-01-30T10:08:40;12.40;90.20
37974;DHT22;23796;51.458;7.000;2024-01-30T10:11:05;12.40;89.60
37974;DHT22;23796;51.458;7.000;2024-01-30T10:13:32;12.40;89.70
37974;DHT22;23796;51.458;7.000;2024-01-30T10:15:57;12.40;89.60
37974;DHT22;23796;51.458;7.000;2024-01-30T10:18:23;12.60;89.50
37974;DHT22;23796;51.458;7.000;2024-01-30T10:20:49;12.70;89.00
37974;DHT22;23796;51.458;7.000;2024-01-30T10:23:15;12.70;88.80
37974;DHT22;23796;51.458;7.000;2024-01-30T10:25:40;12.80;88.70
37974;DHT22;23796;51.458;7.000;2024-01-30T10:28:07;12.80;88.40
37974;DHT22;23796;51.458;7.000;2024-01-30T10:30:32;12.90;88.30
37974;DHT22;23796;51.458;7.000;2024-01-30T10:33:00;13.10;88.10
37974;DHT22;23796;51.458;7.000;2024-01-30T10:35:26;13.30;87.50
37974;DHT22;23796;51.458;7.000;2024-01-30T10:37:52;13.30;87.40
37974;DHT22;23796;51.458;7.000;2024-01-30T10:40:21;13.40;86.90
37974;DHT22;23796;51.458;7.000;2024-01-30T10:42:53;13.40;86.70
37974;DHT22;23796;51.458;7.000;2024-01-30T10:45:22;13.50;86.60
37974;DHT22;23796;51.458;7.000;2024-01-30T10:47:53;13.50;86.60
37974;DHT22;23796;51.458;7.000;2024-01-30T10:50:20;13.50;86.60
37974;DHT22;23796;51.458;7.000;2024-01-30T10:52:46;13.50;86.60
37974;DHT22;23796;51.458;7.000;2024-01-30T10:55:14;13.40;86.60
37974;DHT22;23796;51.458;7.000;2024-01-30T10:57:41;13.30;87.10
37974;DHT22;23796;51.458;7.000;2024-01-30T11:00:09;13.20;87.40
37974;DHT22;23796;51.458;7.000;2024-01-30T11:02:41;13.20;87.50
37974;DHT22;23796;51.458;7.000;2024-01-30T11:05:08;13.30;87.50
37974;DHT22;23796;51.458;7.000;2024-01-30T11:07:34;13.30;87.50
37974;DHT22;23796;51.458;7.000;2024-01-30T11:10:01;13.40;87.30
37974;DHT22;23796;51.458;7.000;2024-01-30T11:12:27;13.50;87.40
37974;DHT22;23796;51.458;7.000;2024-01-30T11:15:11;13.50;87.00
37974;DHT22;23796;51.458;7.000;2024-01-30T11:20:31;13.50;87.10
37974;DHT22;23796;51.458;7.000;2024-01-30T11:22:57;13.60;87.00
37974;DHT22;23796;51.458;7.000;2024-01-30T11:25:24;13.60;86.90
37974;DHT22;23796;51.458;7.000;2024-01-30T11:27:56;13.70;86.90
37974;DHT22;23796;51.458;7.000;2024-01-30T11:30:30;13.70;86.80
37974;DHT22;23796;51.458;7.000;2024-01-30T11:33:05;13.70;87.00
37974;DHT22;23796;51.458;7.000;2024-01-30T11:35:44;13.70;87.10
37974;DHT22;23796;51.458;7.000;2024-01-30T11:38:12;13.70;87.20
37974;DHT22;23796;51.458;7.000;2024-01-30T11:40:39;13.70;87.10
37974;DHT22;23796;51.458;7.000;2024-01-30T11:43:06;13.70;87.20
37974;DHT22;23796;51.458;7.000;2024-01-30T11:45:34;13.70;87.40
37974;DHT22;23796;51.458;7.000;2024-01-30T11:48:00;13.60;87.70
37974;DHT22;23796;51.458;7.000;2024-01-30T11:50:38;13.60;87.70
37974;DHT22;23796;51.458;7.000;2024-01-30T11:53:04;13.70;87.70
37974;DHT22;23796;51.458;7.000;2024-01-30T11:55:33;13.70;87.60
37974;DHT22;23796;51.458;7.000;2024-01-30T11:58:01;13.70;87.70
37974;DHT22;23796;51.458;7.000;2024-01-30T12:00:29;13.50;88.10
37974;DHT22;23796;51.458;7.000;2024-01-30T12:02:58;13.40;88.50
37974;DHT22;23796;51.458;7.000;2024-01-30T12:05:26;13.30;89.20
37974;DHT22;23796;51.458;7.000;2024-01-30T12:07:53;13.30;89.50
37974;DHT22;23796;51.458;7.000;2024-01-30T12:10:21;13.30;89.60
37974;DHT22;23796;51.458;7.000;2024-01-30T12:12:48;13.30;89.60
37974;DHT22;23796;51.458;7.000;2024-01-30T12:15:15;13.40;89.50
37974;DHT22;23796;51.458;7.000;2024-01-30T12:17:43;13.40;89.30
37974;DHT22;23796;51.458;7.000;2024-01-30T12:20:14;13.30;89.60
37974;DHT22;23796;51.458;7.000;2024-01-30T12:22:44;13.40;89.80
37974;DHT22;23796;51.458;7.000;2024-01-30T12:25:12;13.40;89.80
37974;DHT22;23796;51.458;7.000;2024-01-30T12:27:39;13.40;89.80
37974;DHT22;23796;51.458;7.000;2024-01-30T12:30:09;13.40;90.00
37974;DHT22;23796;51.458;7.000;2024-01-30T12:32:35;13.50;90.20
37974;DHT22;23796;51.458;7.000;2024-01-30T12:35:02;13.50;90.10
37974;DHT22;23796;51.458;7.000;2024-01-30T12:37:27;13.60;90.00
37974;DHT22;23796;51.458;7.000;2024-01-30T12:39:55;13.50;90.30
37974;DHT22;23796;51.458;7.000;2024-01-30T12:42:20;13.50;90.40
37974;DHT22;23796;51.458;7.000;2024-01-30T12:44:49;13.50;90.40
37974;DHT22;23796;51.458;7.000;2024-01-30T12:47:15;13.40;90.80
37974;DHT22;23796;51.458;7.000;2024-01-30T12:49:43;13.50;90.80
37974;DHT22;23796;51.458;7.000;2024-01-30T12:52:13;13.40;91.10
37974;DHT22;23796;51.458;7.000;2024-01-30T12:54:39;13.40;91.20
37974;DHT22;23796;51.458;7.000;2024-01-30T12:57:06;13.40;91.30
37974;DHT22;23796;51.458;7.000;2024-01-30T12:59:31;13.30;91.50
37974;DHT22;23796;51.458;7.000;2024-01-30T13:01:58;13.40;91.50
37974;DHT22;23796;51.458;7.000;2024-01-30T13:04:24;13.40;91.60
37974;DHT22;23796;51.458;7.000;2024-01-30T13:06:50;13.40;91.60
37974;DHT22;23796;51.458;7.000;2024-01-30T13:09:18;13.30;91.80
37974;DHT22;23796;51.458;7.000;2024-01-30T13:11:43;13.30;91.90
37974;DHT22;23796;51.458;7.000;2024-01-30T13:14:09;13.30;92.20
37974;DHT22;23796;51.458;7.000;2024-01-30T13:16:34;13.30;92.30
37974;DHT22;23796;51.458;7.000;2024-01-30T13:19:00;13.30;92.40
37974;DHT22;23796;51.458;7.000;2024-01-30T13:21:27;13.20;92.50
37974;DHT22;23796;51.458;7.000;2024-01-30T13:23:55;13.20;92.60
37974;DHT22;23796;51.458;7.000;2024-01-30T13:26:21;13.20;92.70
37974;DHT22;23796;51.458;7.000;2024-01-30T13:28:49;13.20;92.80
37974;DHT22;23796;51.458;7.000;2024-01-30T13:31:15;13.10;93.10
37974;DHT22;23796;51.458;7.000;2024-01-30T13:33:41;13.00;93.40
37974;DHT22;23796;51.458;7.000;2024-01-30T13:36:07;13.10;93.40
37974;DHT22;23796;51.458;7.000;2024-01-30T13:38:34;13.00;93.60
37974;DHT22;23796;51.458;7.000;2024-01-30T13:41:00;13.00;93.70
37974;DHT22;23796;51.458;7.000;2024-01-30T13:43:26;13.00;93.70
37974;DHT22;23796;51.458;7.000;2024-01-30T13:45:51;13.00;93.80
37974;DHT22;23796;51.458;7.000;2024-01-30T13:48:17;12.90;94.00
37974;DHT22;23796;51.458;7.000;2024-01-30T13:50:43;13.00;94.00
37974;DHT22;23796;51.458;7.000;2024-01-30T13:53:09;12.90;94.20
37974;DHT22;23796;51.458;7.000;2024-01-30T13:55:35;13.00;94.30
37974;DHT22;23796;51.458;7.000;2024-01-30T13:58:00;13.00;94.20
37974;DHT22;23796;51.458;7.000;2024-01-30T14:00:27;13.00;94.30
37974;DHT22;23796;51.458;7.000;2024-01-30T14:02:53;13.00;94.30
37974;DHT22;23796;51.458;7.000;2024-01-30T14:05:23;12.90;94.50
37974;DHT22;23796;51.458;7.000;2024-01-30T14:07:49;13.00;94.70
37974;DHT22;23796;51.458;7.000;2024-01-30T14:10:15;13.00;94.50
37974;DHT22;23796;51.458;7.000;2024-01-30T14:12:42;13.00;94.50
37974;DHT22;23796;51.458;7.000;2024-01-30T14:15:09;13.00;94.50
37974;DHT22;23796;51.458;7.000;2024-01-30T14:17:35;13.10;94.40
37974;DHT22;23796;51.458;7.000;2024-01-30T14:20:02;13.20;94.10
37974;DHT22;23796;51.458;7.000;2024-01-30T14:22:28;13.40;93.60
37974;DHT22;23796;51.458;7.000;2024-01-30T14:24:54;13.30;93.70
37974;DHT22;23796;51.458;7.000;2024-01-30T14:27:21;13.40;93.40
37974;DHT22;23796;51.458;7.000;2024-01-30T14:29:48;13.40;93.20
37974;DHT22;23796;51.458;7.000;2024-01-30T14:32:16;13.40;93.00
37974;DHT22;23796;51.458;7.000;2024-01-30T14:34:42;13.30;93.10
37974;DHT22;23796;51.458;7.000;2024-01-30T14:37:12;13.30;93.40
37974;DHT22;23796;51.458;7.000;2024-01-30T14:39:38;13.20;93.60
37974;DHT22;23796;51.458;7.000;2024-01-30T14:42:06;13.20;93.90
37974;DHT22;23796;51.458;7.000;2024-01-30T14:44:35;13.20;94.00
37974;DHT22;23796;51.458;7.000;2024-01-30T14:47:00;13.10;94.10
37974;DHT22;23796;51.458;7.000;2024-01-30T14:49:29;13.10;94.20
37974;DHT22;23796;51.458;7.000;2024-01-30T14:51:54;13.10;94.40
37974;DHT22;23796;51.458;7.000;2024-01-30T14:54:20;13.20;94.10
37974;DHT22;23796;51.458;7.000;2024-01-30T14:56:46;13.10;94.10
37974;DHT22;23796;51.458;7.000;2024-01-30T14:59:11;13.00;93.80
37974;DHT22;23796;51.458;7.000;2024-01-30T15:01:37;12.90;94.30
37974;DHT22;23796;51.458;7.000;2024-01-30T15:04:03;12.80;95.00
37974;DHT22;23796;51.458;7.000;2024-01-30T15:06:31;12.60;95.70
37974;DHT22;23796;51.458;7.000;2024-01-30T15:08:59;12.50;95.50
37974;DHT22;23796;51.458;7.000;2024-01-30T15:11:28;12.30;94.60
37974;DHT22;23796;51.458;7.000;2024-01-30T15:13:53;12.20;94.20
37974;DHT22;23796;51.458;7.000;2024-01-30T15:16:19;12.20;94.00
37974;DHT22;23796;51.458;7.000;2024-01-30T15:18:44;12.10;94.10
37974;DHT22;23796;51.458;7.000;2024-01-30T15:21:10;12.00;94.30
37974;DHT22;23796;51.458;7.000;2024-01-30T15:23:35;11.90;94.50
37974;DHT22;23796;51.458;7.000;2024-01-30T15:26:01;11.90;94.10
37974;DHT22;23796;51.458;7.000;2024-01-30T15:28:37;11.70;93.90
37974;DHT22;23796;51.458;7.000;2024-01-30T15:31:06;11.60;94.00